Impacts METAR Board
IDs:

KTPA - Tampa Intl Arpt, FL, US

Updated at: 1200 UTC 17 Dec 2018
Potential Impact None Slight Moderate High
Time 17/00Z 17/01Z 17/02Z 17/03Z 17/04Z 17/05Z 17/06Z 17/07Z 17/08Z 17/09Z 17/10Z 17/11Z 17/12Z
Temp61 61 61 61 61 59 57 57 56 54 54 54 54
Dewpt52 52 53 53 53 53 53 53 51 47 46 47 47
Altim30.15 30.16 30.16 30.17 30.17 30.16 30.14 30.14 30.15 30.15 30.15 30.16 30.16
VIS10 10 10 10 10 10 10 10 10 10 10 10 10
CIG28 29 29 27 28 24 -- -- 28 28 29 20 22
CoverBKNBKNBKNOVCBKNOVCFEWSCTBKNOVCOVCOVCOVC
FltCatMVFRMVFRMVFRMVFRMVFRMVFRVFRVFRMVFRMVFRMVFRMVFRMVFR
WX--------------------------
WDir340340320320310330033010360360350350
WSpd9 5 3 4 4 4 0 4 9 7 7 6 4
WGst-- -- -- -- -- -- -- -- -- -- -- -- --
Raw hourly METARs
KTPA 162353Z 34009KT 10SM BKN028 16/11 A3015 RMK AO2 SLP208 T01610111 10217 20161 51016
KTPA 170053Z 34005KT 10SM BKN029 16/11 A3016 RMK AO2 SLP211 T01610111
KTPA 170153Z 32003KT 10SM BKN029 16/12 A3016 RMK AO2 SLP213 T01610117
KTPA 170253Z 32004KT 10SM OVC027 16/12 A3017 RMK AO2 SLP215 T01610117 51007
KTPA 170353Z 31004KT 10SM BKN028 16/12 A3017 RMK AO2 SLP216 T01610117
KTPA 170453Z 33004KT 10SM BKN024 OVC030 15/12 A3016 RMK AO2 SLP212 T01500117 402170150
KTPA 170553Z 00000KT 10SM FEW028 14/12 A3014 RMK AO2 SLP207 T01390117 10167 20139 58008
KTPA 170653Z 33004KT 10SM SCT026 14/12 A3014 RMK AO2 SLP206 T01390117
KTPA 170753Z 01009KT 10SM BKN028 13/11 A3015 RMK AO2 SLP210 T01330106
KTPA 170853Z 36007KT 10SM FEW010 OVC028 12/08 A3015 RMK AO2 SLP208 T01220083 50002
KTPA 170953Z 36007KT 10SM OVC029 12/08 A3015 RMK AO2 SLP208 T01220078
KTPA 171053Z 35006KT 10SM OVC020 12/08 A3016 RMK AO2 SLP211 T01220083
KTPA 171153Z 35004KT 10SM OVC022 12/08 A3016 RMK AO2 SLP213 T01220083 10139 20117 53005



Page loaded:  12:00 UTC  |   04:00 AM Pacific  |   05:00 AM Mountain  |   06:00 AM Central  |   07:00 AM Eastern

 

ADVISORIES

FORECASTS

FORECASTS

OBSERVATIONS

USER TOOLS

ABOUT US